sensor_id;sensor_type;location;lat;lon;timestamp;pressure;altitude;pressure_sealevel;temperature
77728;BMP280;68312;53.502;10.030;2023-07-13T00:00:28;101485.31;;;15.62
77728;BMP280;68312;53.502;10.030;2023-07-13T00:02:55;101481.00;;;15.57
77728;BMP280;68312;53.502;10.030;2023-07-13T00:05:22;101475.63;;;15.54
77728;BMP280;68312;53.502;10.030;2023-07-13T00:07:49;101476.25;;;15.51
77728;BMP280;68312;53.502;10.030;2023-07-13T00:10:16;101466.78;;;15.50
77728;BMP280;68312;53.502;10.030;2023-07-13T00:12:43;101464.13;;;15.50
77728;BMP280;68312;53.502;10.030;2023-07-13T00:15:16;101470.88;;;15.48
77728;BMP280;68312;53.502;10.030;2023-07-13T00:17:48;101460.03;;;15.41
77728;BMP280;68312;53.502;10.030;2023-07-13T00:20:14;101462.47;;;15.34
77728;BMP280;68312;53.502;10.030;2023-07-13T00:22:40;101458.03;;;15.26
77728;BMP280;68312;53.502;10.030;2023-07-13T00:25:06;101467.28;;;15.20
77728;BMP280;68312;53.502;10.030;2023-07-13T00:27:33;101467.41;;;15.12
77728;BMP280;68312;53.502;10.030;2023-07-13T00:29:58;101464.06;;;15.03
77728;BMP280;68312;53.502;10.030;2023-07-13T00:32:24;101464.59;;;14.97
77728;BMP280;68312;53.502;10.030;2023-07-13T00:34:52;101474.28;;;14.93
77728;BMP280;68312;53.502;10.030;2023-07-13T00:40:58;101477.00;;;14.84
77728;BMP280;68312;53.502;10.030;2023-07-13T00:43:25;101474.09;;;14.77
77728;BMP280;68312;53.502;10.030;2023-07-13T00:48:20;101477.47;;;14.66
77728;BMP280;68312;53.502;10.030;2023-07-13T00:50:51;101474.69;;;14.63
77728;BMP280;68312;53.502;10.030;2023-07-13T00:53:21;101478.19;;;14.55
77728;BMP280;68312;53.502;10.030;2023-07-13T00:55:48;101478.19;;;14.55
77728;BMP280;68312;53.502;10.030;2023-07-13T00:58:16;101473.97;;;14.54
77728;BMP280;68312;53.502;10.030;2023-07-13T01:00:42;101475.72;;;14.50
77728;BMP280;68312;53.502;10.030;2023-07-13T01:03:08;101482.34;;;14.44
77728;BMP280;68312;53.502;10.030;2023-07-13T01:05:35;101474.28;;;14.41
77728;BMP280;68312;53.502;10.030;2023-07-13T01:08:02;101477.53;;;14.38
77728;BMP280;68312;53.502;10.030;2023-07-13T01:14:10;101475.38;;;14.31
77728;BMP280;68312;53.502;10.030;2023-07-13T01:16:37;101484.00;;;14.28
77728;BMP280;68312;53.502;10.030;2023-07-13T01:19:10;101483.09;;;14.24
77728;BMP280;68312;53.502;10.030;2023-07-13T01:21:43;101471.88;;;14.27
77728;BMP280;68312;53.502;10.030;2023-07-13T01:24:09;101487.53;;;14.32
77728;BMP280;68312;53.502;10.030;2023-07-13T01:26:34;101474.19;;;14.29
77728;BMP280;68312;53.502;10.030;2023-07-13T01:29:00;101477.81;;;14.24
77728;BMP280;68312;53.502;10.030;2023-07-13T01:31:25;101480.75;;;14.23
77728;BMP280;68312;53.502;10.030;2023-07-13T01:33:51;101484.03;;;14.20
77728;BMP280;68312;53.502;10.030;2023-07-13T01:36:16;101476.78;;;14.17
77728;BMP280;68312;53.502;10.030;2023-07-13T01:38:41;101477.75;;;14.13
77728;BMP280;68312;53.502;10.030;2023-07-13T01:41:07;101475.41;;;14.11
77728;BMP280;68312;53.502;10.030;2023-07-13T01:43:33;101473.38;;;14.08
77728;BMP280;68312;53.502;10.030;2023-07-13T01:45:58;101471.19;;;14.10
77728;BMP280;68312;53.502;10.030;2023-07-13T01:48:24;101475.09;;;14.13
77728;BMP280;68312;53.502;10.030;2023-07-13T01:50:50;101480.38;;;14.13
77728;BMP280;68312;53.502;10.030;2023-07-13T01:53:15;101475.69;;;14.10
77728;BMP280;68312;53.502;10.030;2023-07-13T01:55:41;101472.50;;;14.04
77728;BMP280;68312;53.502;10.030;2023-07-13T01:58:07;101473.13;;;14.01
77728;BMP280;68312;53.502;10.030;2023-07-13T02:00:33;101472.19;;;13.97
77728;BMP280;68312;53.502;10.030;2023-07-13T02:02:58;101470.81;;;14.00
77728;BMP280;68312;53.502;10.030;2023-07-13T02:05:24;101473.75;;;13.98
77728;BMP280;68312;53.502;10.030;2023-07-13T02:07:49;101467.72;;;13.98
77728;BMP280;68312;53.502;10.030;2023-07-13T02:10:15;101471.13;;;13.98
77728;BMP280;68312;53.502;10.030;2023-07-13T02:12:42;101471.75;;;13.95
77728;BMP280;68312;53.502;10.030;2023-07-13T02:15:08;101480.00;;;13.94
77728;BMP280;68312;53.502;10.030;2023-07-13T02:17:34;101475.19;;;13.96
77728;BMP280;68312;53.502;10.030;2023-07-13T02:20:01;101482.00;;;13.97
77728;BMP280;68312;53.502;10.030;2023-07-13T02:22:28;101487.94;;;13.94
77728;BMP280;68312;53.502;10.030;2023-07-13T02:24:53;101478.75;;;14.00
77728;BMP280;68312;53.502;10.030;2023-07-13T02:27:19;101482.16;;;14.00
77728;BMP280;68312;53.502;10.030;2023-07-13T02:29:44;101478.44;;;13.93
77728;BMP280;68312;53.502;10.030;2023-07-13T02:32:10;101488.25;;;13.92
77728;BMP280;68312;53.502;10.030;2023-07-13T02:34:35;101486.56;;;13.88
77728;BMP280;68312;53.502;10.030;2023-07-13T02:37:01;101486.69;;;13.91
77728;BMP280;68312;53.502;10.030;2023-07-13T02:39:27;101487.28;;;13.97
77728;BMP280;68312;53.502;10.030;2023-07-13T02:41:53;101480.31;;;13.92
77728;BMP280;68312;53.502;10.030;2023-07-13T02:47:32;101481.84;;;13.93
77728;BMP280;68312;53.502;10.030;2023-07-13T02:49:58;101476.47;;;13.90
77728;BMP280;68312;53.502;10.030;2023-07-13T02:52:24;101486.88;;;13.86
77728;BMP280;68312;53.502;10.030;2023-07-13T02:54:50;101488.28;;;13.84
77728;BMP280;68312;53.502;10.030;2023-07-13T02:57:15;101483.91;;;13.88
77728;BMP280;68312;53.502;10.030;2023-07-13T02:59:41;101482.50;;;13.90
77728;BMP280;68312;53.502;10.030;2023-07-13T03:02:06;101486.56;;;13.88
77728;BMP280;68312;53.502;10.030;2023-07-13T03:04:32;101493.81;;;13.91
77728;BMP280;68312;53.502;10.030;2023-07-13T03:06:57;101486.25;;;13.89
77728;BMP280;68312;53.502;10.030;2023-07-13T03:09:24;101483.25;;;13.91
77728;BMP280;68312;53.502;10.030;2023-07-13T03:11:55;101492.16;;;13.86
77728;BMP280;68312;53.502;10.030;2023-07-13T03:14:22;101485.94;;;13.83
77728;BMP280;68312;53.502;10.030;2023-07-13T03:16:49;101482.84;;;13.81
77728;BMP280;68312;53.502;10.030;2023-07-13T03:19:14;101486.59;;;13.80
77728;BMP280;68312;53.502;10.030;2023-07-13T03:21:40;101476.63;;;13.85
77728;BMP280;68312;53.502;10.030;2023-07-13T03:27:47;101492.13;;;13.95
77728;BMP280;68312;53.502;10.030;2023-07-13T03:30:14;101490.56;;;13.94
77728;BMP280;68312;53.502;10.030;2023-07-13T03:32:39;101484.50;;;13.93
77728;BMP280;68312;53.502;10.030;2023-07-13T03:35:05;101483.91;;;13.88
77728;BMP280;68312;53.502;10.030;2023-07-13T03:37:30;101484.69;;;13.88
77728;BMP280;68312;53.502;10.030;2023-07-13T03:39:56;101486.38;;;13.93
77728;BMP280;68312;53.502;10.030;2023-07-13T03:42:21;101480.31;;;13.92
77728;BMP280;68312;53.502;10.030;2023-07-13T03:44:46;101490.09;;;13.92
77728;BMP280;68312;53.502;10.030;2023-07-13T03:47:17;101487.03;;;13.90
77728;BMP280;68312;53.502;10.030;2023-07-13T03:49:42;101490.56;;;13.94
77728;BMP280;68312;53.502;10.030;2023-07-13T03:52:08;101491.03;;;13.96
77728;BMP280;68312;53.502;10.030;2023-07-13T03:54:33;101494.88;;;13.98
77728;BMP280;68312;53.502;10.030;2023-07-13T03:56:58;101492.38;;;14.02
77728;BMP280;68312;53.502;10.030;2023-07-13T03:59:24;101490.00;;;14.09
77728;BMP280;68312;53.502;10.030;2023-07-13T04:01:49;101481.44;;;14.12
77728;BMP280;68312;53.502;10.030;2023-07-13T04:04:15;101494.03;;;14.14
77728;BMP280;68312;53.502;10.030;2023-07-13T04:06:40;101495.97;;;14.26
77728;BMP280;68312;53.502;10.030;2023-07-13T04:09:06;101492.88;;;14.24
77728;BMP280;68312;53.502;10.030;2023-07-13T04:11:32;101492.59;;;14.25
77728;BMP280;68312;53.502;10.030;2023-07-13T04:13:58;101497.66;;;14.30
77728;BMP280;68312;53.502;10.030;2023-07-13T04:16:25;101501.81;;;14.31
77728;BMP280;68312;53.502;10.030;2023-07-13T04:18:51;101501.69;;;14.36
77728;BMP280;68312;53.502;10.030;2023-07-13T04:21:20;101495.25;;;14.37
77728;BMP280;68312;53.502;10.030;2023-07-13T04:23:46;101489.66;;;14.39
77728;BMP280;68312;53.502;10.030;2023-07-13T04:26:12;101493.84;;;14.40
77728;BMP280;68312;53.502;10.030;2023-07-13T04:28:37;101487.63;;;14.44
77728;BMP280;68312;53.502;10.030;2023-07-13T04:31:03;101502.63;;;14.52
77728;BMP280;68312;53.502;10.030;2023-07-13T04:33:29;101486.44;;;14.53
77728;BMP280;68312;53.502;10.030;2023-07-13T04:35:55;101488.56;;;14.60
77728;BMP280;68312;53.502;10.030;2023-07-13T04:38:26;101487.63;;;14.64
77728;BMP280;68312;53.502;10.030;2023-07-13T04:40:55;101485.19;;;14.71
77728;BMP280;68312;53.502;10.030;2023-07-13T04:43:23;101487.31;;;14.77
77728;BMP280;68312;53.502;10.030;2023-07-13T04:45:50;101477.09;;;14.88
77728;BMP280;68312;53.502;10.030;2023-07-13T04:48:16;101481.41;;;14.92
77728;BMP280;68312;53.502;10.030;2023-07-13T04:50:43;101483.09;;;14.97
77728;BMP280;68312;53.502;10.030;2023-07-13T04:53:11;101493.16;;;15.03
77728;BMP280;68312;53.502;10.030;2023-07-13T04:55:37;101489.09;;;15.05
77728;BMP280;68312;53.502;10.030;2023-07-13T04:58:03;101484.63;;;15.18
77728;BMP280;68312;53.502;10.030;2023-07-13T05:00:29;101489.81;;;15.26
77728;BMP280;68312;53.502;10.030;2023-07-13T05:02:56;101490.66;;;15.30
77728;BMP280;68312;53.502;10.030;2023-07-13T05:05:24;101502.28;;;15.37
77728;BMP280;68312;53.502;10.030;2023-07-13T05:07:51;101492.50;;;15.50
77728;BMP280;68312;53.502;10.030;2023-07-13T05:10:17;101497.22;;;15.68
77728;BMP280;68312;53.502;10.030;2023-07-13T05:12:43;101500.44;;;15.97
77728;BMP280;68312;53.502;10.030;2023-07-13T05:15:09;101500.31;;;16.17
77728;BMP280;68312;53.502;10.030;2023-07-13T05:17:35;101494.38;;;16.35
77728;BMP280;68312;53.502;10.030;2023-07-13T05:20:00;101500.63;;;16.54
77728;BMP280;68312;53.502;10.030;2023-07-13T05:22:26;101504.13;;;16.70
77728;BMP280;68312;53.502;10.030;2023-07-13T05:24:51;101500.03;;;16.87
77728;BMP280;68312;53.502;10.030;2023-07-13T05:27:17;101511.03;;;17.01
77728;BMP280;68312;53.502;10.030;2023-07-13T05:29:42;101500.75;;;17.15
77728;BMP280;68312;53.502;10.030;2023-07-13T05:32:07;101510.88;;;17.25
77728;BMP280;68312;53.502;10.030;2023-07-13T05:34:33;101498.19;;;17.34
77728;BMP280;68312;53.502;10.030;2023-07-13T05:36:58;101504.03;;;17.24
77728;BMP280;68312;53.502;10.030;2023-07-13T05:39:24;101504.22;;;17.31
77728;BMP280;68312;53.502;10.030;2023-07-13T05:41:51;101499.84;;;17.23
77728;BMP280;68312;53.502;10.030;2023-07-13T05:44:16;101505.16;;;17.23
77728;BMP280;68312;53.502;10.030;2023-07-13T05:46:42;101514.25;;;17.22
77728;BMP280;68312;53.502;10.030;2023-07-13T05:49:07;101524.41;;;17.20
77728;BMP280;68312;53.502;10.030;2023-07-13T05:51:33;101516.03;;;17.18
77728;BMP280;68312;53.502;10.030;2023-07-13T05:53:59;101513.88;;;17.23
77728;BMP280;68312;53.502;10.030;2023-07-13T05:56:24;101514.56;;;17.20
77728;BMP280;68312;53.502;10.030;2023-07-13T05:58:51;101512.50;;;17.29
77728;BMP280;68312;53.502;10.030;2023-07-13T06:01:17;101515.00;;;17.38
77728;BMP280;68312;53.502;10.030;2023-07-13T06:03:44;101525.09;;;17.47
77728;BMP280;68312;53.502;10.030;2023-07-13T06:06:10;101520.81;;;17.58
77728;BMP280;68312;53.502;10.030;2023-07-13T06:08:36;101521.00;;;17.65
77728;BMP280;68312;53.502;10.030;2023-07-13T06:11:05;101525.34;;;17.73
77728;BMP280;68312;53.502;10.030;2023-07-13T06:13:45;101522.25;;;17.71
77728;BMP280;68312;53.502;10.030;2023-07-13T06:16:11;101526.81;;;17.70
77728;BMP280;68312;53.502;10.030;2023-07-13T06:18:38;101529.81;;;17.69
77728;BMP280;68312;53.502;10.030;2023-07-13T06:21:09;101524.91;;;17.71
77728;BMP280;68312;53.502;10.030;2023-07-13T06:23:37;101529.38;;;17.67
77728;BMP280;68312;53.502;10.030;2023-07-13T06:26:03;101540.09;;;17.70
77728;BMP280;68312;53.502;10.030;2023-07-13T06:28:29;101529.06;;;17.53
77728;BMP280;68312;53.502;10.030;2023-07-13T06:30:56;101534.59;;;17.64
77728;BMP280;68312;53.502;10.030;2023-07-13T06:33:22;101528.44;;;17.75
77728;BMP280;68312;53.502;10.030;2023-07-13T06:35:48;101538.31;;;17.74
77728;BMP280;68312;53.502;10.030;2023-07-13T06:38:14;101539.81;;;17.75
77728;BMP280;68312;53.502;10.030;2023-07-13T06:40:39;101544.09;;;17.80
77728;BMP280;68312;53.502;10.030;2023-07-13T06:43:06;101545.84;;;17.88
77728;BMP280;68312;53.502;10.030;2023-07-13T06:49:22;101551.16;;;17.88
77728;BMP280;68312;53.502;10.030;2023-07-13T06:51:48;101553.44;;;17.89
77728;BMP280;68312;53.502;10.030;2023-07-13T06:54:13;101544.53;;;17.97
77728;BMP280;68312;53.502;10.030;2023-07-13T06:56:39;101547.41;;;18.07
77728;BMP280;68312;53.502;10.030;2023-07-13T06:59:04;101555.81;;;18.09
77728;BMP280;68312;53.502;10.030;2023-07-13T07:01:29;101550.56;;;18.13
77728;BMP280;68312;53.502;10.030;2023-07-13T07:03:55;101545.97;;;18.28
77728;BMP280;68312;53.502;10.030;2023-07-13T07:06:21;101553.09;;;18.24
77728;BMP280;68312;53.502;10.030;2023-07-13T07:08:51;101543.69;;;18.27
77728;BMP280;68312;53.502;10.030;2023-07-13T07:11:20;101550.75;;;18.20
77728;BMP280;68312;53.502;10.030;2023-07-13T07:13:49;101561.19;;;18.28
77728;BMP280;68312;53.502;10.030;2023-07-13T07:16:16;101553.53;;;18.26
77728;BMP280;68312;53.502;10.030;2023-07-13T07:18:41;101559.22;;;18.44
77728;BMP280;68312;53.502;10.030;2023-07-13T07:21:07;101559.16;;;18.40
77728;BMP280;68312;53.502;10.030;2023-07-13T07:23:34;101550.97;;;18.48
77728;BMP280;68312;53.502;10.030;2023-07-13T07:26:00;101550.88;;;18.82
77728;BMP280;68312;53.502;10.030;2023-07-13T07:28:25;101551.38;;;18.69
77728;BMP280;68312;53.502;10.030;2023-07-13T07:30:54;101556.50;;;18.99
77728;BMP280;68312;53.502;10.030;2023-07-13T07:33:23;101556.19;;;19.49
77728;BMP280;68312;53.502;10.030;2023-07-13T07:35:51;101565.31;;;19.22
77728;BMP280;68312;53.502;10.030;2023-07-13T07:38:17;101569.66;;;19.11
77728;BMP280;68312;53.502;10.030;2023-07-13T07:40:43;101562.31;;;19.49
77728;BMP280;68312;53.502;10.030;2023-07-13T07:43:10;101559.84;;;19.37
77728;BMP280;68312;53.502;10.030;2023-07-13T07:45:37;101554.44;;;19.56
77728;BMP280;68312;53.502;10.030;2023-07-13T07:48:03;101555.84;;;19.47
77728;BMP280;68312;53.502;10.030;2023-07-13T07:50:30;101555.03;;;19.94
77728;BMP280;68312;53.502;10.030;2023-07-13T07:52:56;101546.28;;;19.97
77728;BMP280;68312;53.502;10.030;2023-07-13T07:55:22;101540.75;;;20.41
77728;BMP280;68312;53.502;10.030;2023-07-13T07:57:50;101554.47;;;20.10
77728;BMP280;68312;53.502;10.030;2023-07-13T08:00:16;101542.28;;;19.84
77728;BMP280;68312;53.502;10.030;2023-07-13T08:02:42;101553.19;;;19.72
77728;BMP280;68312;53.502;10.030;2023-07-13T08:05:08;101549.03;;;19.78
77728;BMP280;68312;53.502;10.030;2023-07-13T08:07:35;101543.25;;;20.27
77728;BMP280;68312;53.502;10.030;2023-07-13T08:10:01;101545.69;;;20.71
77728;BMP280;68312;53.502;10.030;2023-07-13T08:12:27;101548.97;;;20.94
77728;BMP280;68312;53.502;10.030;2023-07-13T08:14:53;101540.44;;;21.24
77728;BMP280;68312;53.502;10.030;2023-07-13T08:17:19;101527.63;;;21.47
77728;BMP280;68312;53.502;10.030;2023-07-13T08:19:45;101537.50;;;21.43
77728;BMP280;68312;53.502;10.030;2023-07-13T08:22:10;101535.03;;;21.77
77728;BMP280;68312;53.502;10.030;2023-07-13T08:24:37;101524.78;;;21.82
77728;BMP280;68312;53.502;10.030;2023-07-13T08:27:03;101538.53;;;21.84
77728;BMP280;68312;53.502;10.030;2023-07-13T08:29:29;101532.84;;;21.93
77728;BMP280;68312;53.502;10.030;2023-07-13T08:31:57;101535.19;;;22.01
77728;BMP280;68312;53.502;10.030;2023-07-13T08:34:23;101527.97;;;22.05
77728;BMP280;68312;53.502;10.030;2023-07-13T08:36:48;101542.13;;;21.46
77728;BMP280;68312;53.502;10.030;2023-07-13T08:42:58;101538.19;;;21.89
77728;BMP280;68312;53.502;10.030;2023-07-13T08:45:43;101546.16;;;21.76
77728;BMP280;68312;53.502;10.030;2023-07-13T08:48:21;101535.41;;;23.04
77728;BMP280;68312;53.502;10.030;2023-07-13T08:53:48;101541.44;;;23.56
77728;BMP280;68312;53.502;10.030;2023-07-13T08:56:20;101535.31;;;22.39
77728;BMP280;68312;53.502;10.030;2023-07-13T08:58:53;101545.59;;;22.16
77728;BMP280;68312;53.502;10.030;2023-07-13T09:04:19;101533.34;;;22.19
77728;BMP280;68312;53.502;10.030;2023-07-13T09:09:34;101524.59;;;21.52
77728;BMP280;68312;53.502;10.030;2023-07-13T09:12:40;101541.66;;;20.91
77728;BMP280;68312;53.502;10.030;2023-07-13T09:15:31;101551.00;;;20.35
77728;BMP280;68312;53.502;10.030;2023-07-13T09:18:06;101553.88;;;20.24
77728;BMP280;68312;53.502;10.030;2023-07-13T09:20:52;101550.66;;;20.08
77728;BMP280;68312;53.502;10.030;2023-07-13T09:23:23;101563.13;;;20.29
77728;BMP280;68312;53.502;10.030;2023-07-13T09:25:59;101557.91;;;22.45
77728;BMP280;68312;53.502;10.030;2023-07-13T09:28:41;101548.16;;;24.08
77728;BMP280;68312;53.502;10.030;2023-07-13T09:33:46;101536.94;;;22.81
77728;BMP280;68312;53.502;10.030;2023-07-13T09:39:10;101537.34;;;25.15
77728;BMP280;68312;53.502;10.030;2023-07-13T09:41:51;101535.44;;;24.76
77728;BMP280;68312;53.502;10.030;2023-07-13T09:44:43;101539.19;;;24.35
77728;BMP280;68312;53.502;10.030;2023-07-13T09:47:19;101537.59;;;24.41
77728;BMP280;68312;53.502;10.030;2023-07-13T09:50:06;101544.78;;;23.91
77728;BMP280;68312;53.502;10.030;2023-07-13T09:52:48;101542.75;;;24.69
77728;BMP280;68312;53.502;10.030;2023-07-13T09:55:37;101539.38;;;25.04
77728;BMP280;68312;53.502;10.030;2023-07-13T09:58:09;101541.41;;;24.44
77728;BMP280;68312;53.502;10.030;2023-07-13T10:00:43;101549.91;;;24.35
77728;BMP280;68312;53.502;10.030;2023-07-13T10:03:23;101537.84;;;24.64
77728;BMP280;68312;53.502;10.030;2023-07-13T10:05:52;101522.94;;;23.78
77728;BMP280;68312;53.502;10.030;2023-07-13T10:08:26;101546.00;;;22.35
77728;BMP280;68312;53.502;10.030;2023-07-13T10:11:26;101543.97;;;21.98
77728;BMP280;68312;53.502;10.030;2023-07-13T10:13:57;101551.47;;;21.72
77728;BMP280;68312;53.502;10.030;2023-07-13T10:16:45;101543.75;;;22.55
77728;BMP280;68312;53.502;10.030;2023-07-13T10:19:26;101544.91;;;22.50
77728;BMP280;68312;53.502;10.030;2023-07-13T10:22:00;101538.72;;;22.29
77728;BMP280;68312;53.502;10.030;2023-07-13T10:24:35;101539.19;;;21.64
77728;BMP280;68312;53.502;10.030;2023-07-13T10:29:43;101547.56;;;22.40
77728;BMP280;68312;53.502;10.030;2023-07-13T10:32:13;101545.00;;;24.20
77728;BMP280;68312;53.502;10.030;2023-07-13T10:34:44;101535.97;;;24.57
77728;BMP280;68312;53.502;10.030;2023-07-13T10:37:19;101525.16;;;25.44
77728;BMP280;68312;53.502;10.030;2023-07-13T10:39:49;101532.06;;;25.45
77728;BMP280;68312;53.502;10.030;2023-07-13T10:42:27;101525.31;;;25.63
77728;BMP280;68312;53.502;10.030;2023-07-13T10:44:55;101537.25;;;25.25
77728;BMP280;68312;53.502;10.030;2023-07-13T10:47:21;101524.72;;;26.07
77728;BMP280;68312;53.502;10.030;2023-07-13T10:49:50;101524.19;;;26.16
77728;BMP280;68312;53.502;10.030;2023-07-13T10:56:03;101529.03;;;23.89
77728;BMP280;68312;53.502;10.030;2023-07-13T10:58:45;101544.97;;;22.78
77728;BMP280;68312;53.502;10.030;2023-07-13T11:01:16;101552.03;;;22.02
77728;BMP280;68312;53.502;10.030;2023-07-13T11:03:58;101555.25;;;23.41
77728;BMP280;68312;53.502;10.030;2023-07-13T11:08:56;101531.84;;;25.29
77728;BMP280;68312;53.502;10.030;2023-07-13T11:18:52;101526.19;;;25.82
77728;BMP280;68312;53.502;10.030;2023-07-13T11:22:02;101519.38;;;25.45
77728;BMP280;68312;53.502;10.030;2023-07-13T11:24:59;101520.09;;;25.13
77728;BMP280;68312;53.502;10.030;2023-07-13T11:33:24;101533.31;;;23.80
77728;BMP280;68312;53.502;10.030;2023-07-13T11:36:02;101539.31;;;24.11
77728;BMP280;68312;53.502;10.030;2023-07-13T11:41:17;101536.88;;;25.24
77728;BMP280;68312;53.502;10.030;2023-07-13T11:43:49;101535.41;;;25.19
77728;BMP280;68312;53.502;10.030;2023-07-13T11:46:23;101526.78;;;26.22
77728;BMP280;68312;53.502;10.030;2023-07-13T11:48:53;101518.63;;;25.74
77728;BMP280;68312;53.502;10.030;2023-07-13T11:51:31;101523.59;;;25.75
77728;BMP280;68312;53.502;10.030;2023-07-13T11:54:05;101532.53;;;24.97
77728;BMP280;68312;53.502;10.030;2023-07-13T11:56:44;101533.03;;;24.35
77728;BMP280;68312;53.502;10.030;2023-07-13T11:59:12;101533.56;;;24.09
77728;BMP280;68312;53.502;10.030;2023-07-13T12:01:48;101532.53;;;24.97
77728;BMP280;68312;53.502;10.030;2023-07-13T12:04:44;101531.66;;;25.79
77728;BMP280;68312;53.502;10.030;2023-07-13T12:07:18;101523.59;;;25.43
77728;BMP280;68312;53.502;10.030;2023-07-13T12:09:45;101535.69;;;24.42
77728;BMP280;68312;53.502;10.030;2023-07-13T12:12:13;101534.84;;;23.81
77728;BMP280;68312;53.502;10.030;2023-07-13T12:14:42;101546.47;;;22.99
77728;BMP280;68312;53.502;10.030;2023-07-13T12:17:13;101549.16;;;22.85
77728;BMP280;68312;53.502;10.030;2023-07-13T12:19:43;101568.31;;;22.70
77728;BMP280;68312;53.502;10.030;2023-07-13T12:22:10;101605.94;;;21.51
77728;BMP280;68312;53.502;10.030;2023-07-13T12:24:40;101633.22;;;20.27
77728;BMP280;68312;53.502;10.030;2023-07-13T12:27:18;101653.56;;;18.83
77728;BMP280;68312;53.502;10.030;2023-07-13T12:30:00;101674.28;;;17.92
77728;BMP280;68312;53.502;10.030;2023-07-13T12:32:27;101668.44;;;17.71
77728;BMP280;68312;53.502;10.030;2023-07-13T12:34:56;101679.34;;;17.96
77728;BMP280;68312;53.502;10.030;2023-07-13T12:37:28;101672.63;;;18.18
77728;BMP280;68312;53.502;10.030;2023-07-13T12:39:55;101677.31;;;18.54
77728;BMP280;68312;53.502;10.030;2023-07-13T12:42:27;101688.19;;;19.21
77728;BMP280;68312;53.502;10.030;2023-07-13T12:45:24;101691.59;;;20.06
77728;BMP280;68312;53.502;10.030;2023-07-13T12:47:55;101702.16;;;19.99
77728;BMP280;68312;53.502;10.030;2023-07-13T12:50:33;101717.38;;;19.73
77728;BMP280;68312;53.502;10.030;2023-07-13T12:53:13;101714.31;;;19.52
77728;BMP280;68312;53.502;10.030;2023-07-13T12:55:43;101717.44;;;19.36
77728;BMP280;68312;53.502;10.030;2023-07-13T12:58:39;101718.56;;;19.35
77728;BMP280;68312;53.502;10.030;2023-07-13T13:01:09;101722.78;;;19.17
77728;BMP280;68312;53.502;10.030;2023-07-13T13:03:39;101731.59;;;19.02
77728;BMP280;68312;53.502;10.030;2023-07-13T13:08:41;101736.00;;;18.61
77728;BMP280;68312;53.502;10.030;2023-07-13T13:11:08;101735.03;;;18.50
77728;BMP280;68312;53.502;10.030;2023-07-13T13:13:34;101737.53;;;18.62
77728;BMP280;68312;53.502;10.030;2023-07-13T13:16:16;101732.03;;;18.71
77728;BMP280;68312;53.502;10.030;2023-07-13T13:18:50;101734.38;;;18.72
77728;BMP280;68312;53.502;10.030;2023-07-13T13:21:18;101729.06;;;18.91
77728;BMP280;68312;53.502;10.030;2023-07-13T13:23:50;101729.84;;;19.28
77728;BMP280;68312;53.502;10.030;2023-07-13T13:26:23;101722.59;;;19.48
77728;BMP280;68312;53.502;10.030;2023-07-13T13:28:49;101728.44;;;19.75
77728;BMP280;68312;53.502;10.030;2023-07-13T13:31:15;101720.72;;;20.14
77728;BMP280;68312;53.502;10.030;2023-07-13T13:33:42;101725.88;;;20.04
77728;BMP280;68312;53.502;10.030;2023-07-13T13:36:15;101729.19;;;20.20
77728;BMP280;68312;53.502;10.030;2023-07-13T13:38:43;101738.34;;;19.97
77728;BMP280;68312;53.502;10.030;2023-07-13T13:41:11;101738.31;;;20.19
77728;BMP280;68312;53.502;10.030;2023-07-13T13:43:38;101731.56;;;20.02
77728;BMP280;68312;53.502;10.030;2023-07-13T13:46:14;101741.94;;;19.63
77728;BMP280;68312;53.502;10.030;2023-07-13T13:48:42;101741.75;;;19.53
77728;BMP280;68312;53.502;10.030;2023-07-13T13:51:20;101740.84;;;19.46
77728;BMP280;68312;53.502;10.030;2023-07-13T13:53:48;101737.56;;;19.15
77728;BMP280;68312;53.502;10.030;2023-07-13T13:56:14;101749.47;;;19.21
77728;BMP280;68312;53.502;10.030;2023-07-13T13:58:41;101737.53;;;19.33
77728;BMP280;68312;53.502;10.030;2023-07-13T14:01:16;101734.41;;;19.28
77728;BMP280;68312;53.502;10.030;2023-07-13T14:03:43;101727.31;;;19.17
77728;BMP280;68312;53.502;10.030;2023-07-13T14:06:12;101738.94;;;18.90
77728;BMP280;68312;53.502;10.030;2023-07-13T14:08:38;101732.44;;;19.06
77728;BMP280;68312;53.502;10.030;2023-07-13T14:11:04;101734.25;;;19.21
77728;BMP280;68312;53.502;10.030;2023-07-13T14:13:36;101727.88;;;19.25
77728;BMP280;68312;53.502;10.030;2023-07-13T14:16:15;101723.16;;;19.38
77728;BMP280;68312;53.502;10.030;2023-07-13T14:18:47;101718.53;;;19.53
77728;BMP280;68312;53.502;10.030;2023-07-13T14:21:19;101731.94;;;19.79
77728;BMP280;68312;53.502;10.030;2023-07-13T14:23:47;101720.31;;;19.90
77728;BMP280;68312;53.502;10.030;2023-07-13T14:26:18;101721.09;;;20.13
77728;BMP280;68312;53.502;10.030;2023-07-13T14:28:48;101719.28;;;19.98
77728;BMP280;68312;53.502;10.030;2023-07-13T14:31:18;101720.50;;;19.78
77728;BMP280;68312;53.502;10.030;2023-07-13T14:33:44;101716.16;;;19.93
77728;BMP280;68312;53.502;10.030;2023-07-13T14:36:31;101717.34;;;20.17
77728;BMP280;68312;53.502;10.030;2023-07-13T14:39:01;101723.16;;;20.26
77728;BMP280;68312;53.502;10.030;2023-07-13T14:41:31;101715.16;;;20.26
77728;BMP280;68312;53.502;10.030;2023-07-13T14:43:56;101715.97;;;20.27
77728;BMP280;68312;53.502;10.030;2023-07-13T14:46:27;101719.59;;;20.41
77728;BMP280;68312;53.502;10.030;2023-07-13T14:48:59;101724.94;;;20.41
77728;BMP280;68312;53.502;10.030;2023-07-13T14:51:30;101716.00;;;20.84
77728;BMP280;68312;53.502;10.030;2023-07-13T14:53:57;101708.59;;;21.04
77728;BMP280;68312;53.502;10.030;2023-07-13T14:56:25;101713.03;;;20.93
77728;BMP280;68312;53.502;10.030;2023-07-13T14:58:50;101719.47;;;20.59
77728;BMP280;68312;53.502;10.030;2023-07-13T15:01:18;101717.69;;;20.70